EDJA Airport Information

Runway Information
Runway 06 Length 9780 ft width 98 ft
Elevation 2077 ft Threshold 953 ft Heading 59
Runway 24 Length 9780 ft Width 98 ft
Elevation 2077 ft Threshold 953 ft Heading 239
Airport Frequencies
Type AFIS Name MUNCHEN IN Frequency 126.95 MHZ
Type INFO Name INFO Frequency 135.6 MHZ
Airport Navaids
Airport Weather Information & NOTAM
ADDS - METARS form results

(2112 UTC 21 July 2018)
 
METAR text: EDJA 212050Z 22005KT 9999 FEW049 BKN094 16/15 Q1015
Conditions at: EDJA (MEMMINGEN ALLGAU, DE) observed 2050 UTC 21 July 2018
Temperature: 16.0°C (61°F)
Dewpoint: 15.0°C (59°F) [RH = 94%]
Pressure (altimeter): 29.97 inches Hg (1015.0 mb)
Winds: from the SW (220 degrees) at 6 MPH (5 knots; 2.6 m/s)
Visibility: 6 or more miles (10+ km)
Ceiling: 9400 feet AGL
Clouds: few clouds at 4900 feet AGL
broken clouds at 9400 feet AGL
Weather: no significant weather observed at this time

METAR text: EDJA 212020Z 22005KT CAVOK 16/15 Q1015
Conditions at: EDJA (MEMMINGEN ALLGAU, DE) observed 2020 UTC 21 July 2018
Temperature: 16.0°C (61°F)
Dewpoint: 15.0°C (59°F) [RH = 94%]
Pressure (altimeter): 29.97 inches Hg (1015.0 mb)
Winds: from the SW (220 degrees) at 6 MPH (5 knots; 2.6 m/s)
Visibility: 6 or more miles (10+ km)
Ceiling: ceiling and visibility are OK
Clouds: unknown
Weather: no significant weather observed at this time